sensor_id;sensor_type;location;lat;lon;timestamp;pressure;altitude;pressure_sealevel;temperature;humidity
84028;BME280;74111;45.650;25.612;2023-11-19T00:00:31;94936.50;;;1.39;77.02
84028;BME280;74111;45.650;25.612;2023-11-19T00:03:19;94944.42;;;1.39;77.10
84028;BME280;74111;45.650;25.612;2023-11-19T00:05:48;94941.56;;;1.32;77.66
84028;BME280;74111;45.650;25.612;2023-11-19T00:08:16;94941.50;;;1.32;77.52
84028;BME280;74111;45.650;25.612;2023-11-19T00:10:44;94946.37;;;1.35;77.56
84028;BME280;74111;45.650;25.612;2023-11-19T00:13:14;94947.23;;;1.37;77.61
84028;BME280;74111;45.650;25.612;2023-11-19T00:15:42;94952.70;;;1.39;77.33
84028;BME280;74111;45.650;25.612;2023-11-19T00:18:11;94950.02;;;1.38;77.28
84028;BME280;74111;45.650;25.612;2023-11-19T00:20:39;94951.50;;;1.38;77.21
84028;BME280;74111;45.650;25.612;2023-11-19T00:23:07;94954.13;;;1.38;77.24
84028;BME280;74111;45.650;25.612;2023-11-19T00:25:35;94957.53;;;1.38;77.20
84028;BME280;74111;45.650;25.612;2023-11-19T00:28:04;94956.25;;;1.40;77.28
84028;BME280;74111;45.650;25.612;2023-11-19T00:30:32;94956.89;;;1.45;77.33
84028;BME280;74111;45.650;25.612;2023-11-19T00:33:00;94955.25;;;1.44;77.46
84028;BME280;74111;45.650;25.612;2023-11-19T00:35:28;94960.84;;;1.42;77.44
84028;BME280;74111;45.650;25.612;2023-11-19T00:37:57;94959.13;;;1.41;77.38
84028;BME280;74111;45.650;25.612;2023-11-19T00:40:25;94960.86;;;1.31;77.94
84028;BME280;74111;45.650;25.612;2023-11-19T00:42:54;94959.17;;;1.36;77.58
84028;BME280;74111;45.650;25.612;2023-11-19T00:45:22;94960.16;;;1.38;77.75
84028;BME280;74111;45.650;25.612;2023-11-19T00:47:51;94958.17;;;1.39;77.89
84028;BME280;74111;45.650;25.612;2023-11-19T00:50:19;94952.58;;;1.41;77.34
84028;BME280;74111;45.650;25.612;2023-11-19T00:52:48;94958.80;;;1.43;77.33
84028;BME280;74111;45.650;25.612;2023-11-19T00:55:16;94957.87;;;1.41;77.47
84028;BME280;74111;45.650;25.612;2023-11-19T00:57:45;94962.88;;;1.43;77.45
84028;BME280;74111;45.650;25.612;2023-11-19T01:00:13;94962.09;;;1.46;77.23
84028;BME280;74111;45.650;25.612;2023-11-19T01:02:48;94962.40;;;1.50;77.27
84028;BME280;74111;45.650;25.612;2023-11-19T01:05:20;94963.02;;;1.54;77.17
84028;BME280;74111;45.650;25.612;2023-11-19T01:07:52;94961.48;;;1.50;77.32
84028;BME280;74111;45.650;25.612;2023-11-19T01:10:23;94964.36;;;1.47;77.32
84028;BME280;74111;45.650;25.612;2023-11-19T01:12:52;94964.34;;;1.44;77.21
84028;BME280;74111;45.650;25.612;2023-11-19T01:15:21;94960.43;;;1.44;77.24
84028;BME280;74111;45.650;25.612;2023-11-19T01:17:51;94959.36;;;1.46;77.15
84028;BME280;74111;45.650;25.612;2023-11-19T01:20:21;94968.71;;;1.48;77.54
84028;BME280;74111;45.650;25.612;2023-11-19T01:22:50;94971.00;;;1.46;77.64
84028;BME280;74111;45.650;25.612;2023-11-19T01:25:18;94969.86;;;1.47;77.52
84028;BME280;74111;45.650;25.612;2023-11-19T01:27:47;94964.88;;;1.46;77.42
84028;BME280;74111;45.650;25.612;2023-11-19T01:30:15;94963.16;;;1.40;77.74
84028;BME280;74111;45.650;25.612;2023-11-19T01:32:44;94967.30;;;1.39;77.80
84028;BME280;74111;45.650;25.612;2023-11-19T01:35:12;94967.80;;;1.45;77.81
84028;BME280;74111;45.650;25.612;2023-11-19T01:37:41;94965.99;;;1.48;77.65
84028;BME280;74111;45.650;25.612;2023-11-19T01:40:10;94966.67;;;1.48;77.53
84028;BME280;74111;45.650;25.612;2023-11-19T01:42:40;94968.59;;;1.50;77.39
84028;BME280;74111;45.650;25.612;2023-11-19T01:45:08;94966.45;;;1.50;77.05
84028;BME280;74111;45.650;25.612;2023-11-19T01:47:38;94962.62;;;1.51;77.11
84028;BME280;74111;45.650;25.612;2023-11-19T01:50:07;94962.25;;;1.50;76.74
84028;BME280;74111;45.650;25.612;2023-11-19T01:52:37;94964.06;;;1.48;77.11
84028;BME280;74111;45.650;25.612;2023-11-19T01:55:08;94966.19;;;1.46;77.37
84028;BME280;74111;45.650;25.612;2023-11-19T01:57:38;94966.99;;;1.43;77.42
84028;BME280;74111;45.650;25.612;2023-11-19T02:00:10;94969.91;;;1.46;77.31
84028;BME280;74111;45.650;25.612;2023-11-19T02:02:40;94966.05;;;1.44;77.39
84028;BME280;74111;45.650;25.612;2023-11-19T02:05:11;94975.77;;;1.45;77.18
84028;BME280;74111;45.650;25.612;2023-11-19T02:07:40;94972.17;;;1.47;77.05
84028;BME280;74111;45.650;25.612;2023-11-19T02:10:09;94974.70;;;1.43;77.20
84028;BME280;74111;45.650;25.612;2023-11-19T02:12:42;94975.00;;;1.46;77.06
84028;BME280;74111;45.650;25.612;2023-11-19T02:15:11;94978.77;;;1.49;77.07
84028;BME280;74111;45.650;25.612;2023-11-19T02:17:39;94977.08;;;1.53;77.02
84028;BME280;74111;45.650;25.612;2023-11-19T02:20:09;94973.92;;;1.48;76.84
84028;BME280;74111;45.650;25.612;2023-11-19T02:22:40;94976.47;;;1.46;76.92
84028;BME280;74111;45.650;25.612;2023-11-19T02:25:12;94975.07;;;1.44;76.87
84028;BME280;74111;45.650;25.612;2023-11-19T02:27:54;94975.03;;;1.40;77.03
84028;BME280;74111;45.650;25.612;2023-11-19T02:30:24;94978.86;;;1.43;76.89
84028;BME280;74111;45.650;25.612;2023-11-19T02:32:59;94975.79;;;1.46;76.74
84028;BME280;74111;45.650;25.612;2023-11-19T02:35:30;94971.99;;;1.49;76.62
84028;BME280;74111;45.650;25.612;2023-11-19T02:38:00;94965.42;;;1.53;76.37
84028;BME280;74111;45.650;25.612;2023-11-19T02:40:34;94962.66;;;1.55;76.09
84028;BME280;74111;45.650;25.612;2023-11-19T02:43:02;94960.27;;;1.53;75.89
84028;BME280;74111;45.650;25.612;2023-11-19T02:45:33;94958.92;;;1.57;76.08
84028;BME280;74111;45.650;25.612;2023-11-19T02:48:01;94961.45;;;1.59;75.85
84028;BME280;74111;45.650;25.612;2023-11-19T02:50:29;94963.23;;;1.58;75.56
84028;BME280;74111;45.650;25.612;2023-11-19T02:52:59;94969.27;;;1.49;75.26
84028;BME280;74111;45.650;25.612;2023-11-19T02:55:28;94975.62;;;1.41;75.02
84028;BME280;74111;45.650;25.612;2023-11-19T02:57:58;94978.15;;;1.37;75.18
84028;BME280;74111;45.650;25.612;2023-11-19T03:00:28;94982.91;;;1.37;75.44
84028;BME280;74111;45.650;25.612;2023-11-19T03:03:04;94982.98;;;1.37;75.40
84028;BME280;74111;45.650;25.612;2023-11-19T03:05:46;94987.98;;;1.40;75.39
84028;BME280;74111;45.650;25.612;2023-11-19T03:08:15;94981.92;;;1.42;75.15
84028;BME280;74111;45.650;25.612;2023-11-19T03:10:47;94989.69;;;1.45;75.18
84028;BME280;74111;45.650;25.612;2023-11-19T03:13:15;94992.20;;;1.45;74.64
84028;BME280;74111;45.650;25.612;2023-11-19T03:15:45;94996.33;;;1.39;74.25
84028;BME280;74111;45.650;25.612;2023-11-19T03:18:14;94990.90;;;1.37;74.33
84028;BME280;74111;45.650;25.612;2023-11-19T03:20:42;94995.51;;;1.37;74.45
84028;BME280;74111;45.650;25.612;2023-11-19T03:23:10;94995.36;;;1.34;74.23
84028;BME280;74111;45.650;25.612;2023-11-19T03:25:38;95000.55;;;1.33;73.88
84028;BME280;74111;45.650;25.612;2023-11-19T03:28:06;94996.33;;;1.31;73.61
84028;BME280;74111;45.650;25.612;2023-11-19T03:30:35;94993.29;;;1.28;73.23
84028;BME280;74111;45.650;25.612;2023-11-19T03:33:03;94999.55;;;1.32;73.68
84028;BME280;74111;45.650;25.612;2023-11-19T03:35:31;95002.95;;;1.33;73.14
84028;BME280;74111;45.650;25.612;2023-11-19T03:38:01;95006.21;;;1.29;72.24
84028;BME280;74111;45.650;25.612;2023-11-19T03:40:29;95003.16;;;1.29;72.71
84028;BME280;74111;45.650;25.612;2023-11-19T03:42:58;94993.27;;;1.30;72.56
84028;BME280;74111;45.650;25.612;2023-11-19T03:45:26;95006.27;;;1.28;72.15
84028;BME280;74111;45.650;25.612;2023-11-19T03:47:54;95005.77;;;1.28;72.61
84028;BME280;74111;45.650;25.612;2023-11-19T03:50:23;95003.65;;;1.29;72.51
84028;BME280;74111;45.650;25.612;2023-11-19T03:52:52;95002.80;;;1.32;72.58
84028;BME280;74111;45.650;25.612;2023-11-19T03:55:20;94996.84;;;1.27;72.05
84028;BME280;74111;45.650;25.612;2023-11-19T03:57:49;94994.08;;;1.21;72.25
84028;BME280;74111;45.650;25.612;2023-11-19T04:00:18;94988.25;;;1.17;72.35
84028;BME280;74111;45.650;25.612;2023-11-19T04:02:49;94986.94;;;1.17;72.52
84028;BME280;74111;45.650;25.612;2023-11-19T04:05:17;94989.22;;;1.18;72.68
84028;BME280;74111;45.650;25.612;2023-11-19T04:07:47;94991.58;;;1.17;72.51
84028;BME280;74111;45.650;25.612;2023-11-19T04:10:15;94990.27;;;1.18;72.72
84028;BME280;74111;45.650;25.612;2023-11-19T04:12:44;94986.28;;;1.18;72.50
84028;BME280;74111;45.650;25.612;2023-11-19T04:15:14;94983.95;;;1.19;72.56
84028;BME280;74111;45.650;25.612;2023-11-19T04:17:42;94984.43;;;1.20;72.41
84028;BME280;74111;45.650;25.612;2023-11-19T04:20:11;94987.69;;;1.17;72.56
84028;BME280;74111;45.650;25.612;2023-11-19T04:22:42;94983.36;;;1.19;72.60
84028;BME280;74111;45.650;25.612;2023-11-19T04:25:10;94976.84;;;1.18;72.19
84028;BME280;74111;45.650;25.612;2023-11-19T04:27:39;94975.08;;;1.24;72.71
84028;BME280;74111;45.650;25.612;2023-11-19T04:30:07;94974.42;;;1.29;72.90
84028;BME280;74111;45.650;25.612;2023-11-19T04:32:39;94971.55;;;1.26;71.99
84028;BME280;74111;45.650;25.612;2023-11-19T04:35:08;94978.27;;;1.27;72.17
84028;BME280;74111;45.650;25.612;2023-11-19T04:37:37;94979.48;;;1.28;71.77
84028;BME280;74111;45.650;25.612;2023-11-19T04:40:06;94983.71;;;1.29;71.83
84028;BME280;74111;45.650;25.612;2023-11-19T04:42:35;94978.44;;;1.28;71.33
84028;BME280;74111;45.650;25.612;2023-11-19T04:45:03;94972.66;;;1.28;71.60
84028;BME280;74111;45.650;25.612;2023-11-19T04:47:34;94974.24;;;1.21;71.07
84028;BME280;74111;45.650;25.612;2023-11-19T04:50:02;94965.27;;;1.19;71.53
84028;BME280;74111;45.650;25.612;2023-11-19T04:52:31;94962.77;;;1.21;72.18
84028;BME280;74111;45.650;25.612;2023-11-19T04:54:59;94975.90;;;1.26;72.32
84028;BME280;74111;45.650;25.612;2023-11-19T04:57:28;94983.05;;;1.27;72.03
84028;BME280;74111;45.650;25.612;2023-11-19T04:59:56;94984.77;;;1.27;71.86
84028;BME280;74111;45.650;25.612;2023-11-19T05:02:24;94986.23;;;1.18;71.78
84028;BME280;74111;45.650;25.612;2023-11-19T05:04:52;94985.82;;;1.14;71.94
84028;BME280;74111;45.650;25.612;2023-11-19T05:07:21;94986.40;;;1.16;72.04
84028;BME280;74111;45.650;25.612;2023-11-19T05:09:49;94982.83;;;1.18;72.19
84028;BME280;74111;45.650;25.612;2023-11-19T05:12:17;94983.38;;;1.19;72.45
84028;BME280;74111;45.650;25.612;2023-11-19T05:14:45;94979.65;;;1.21;72.71
84028;BME280;74111;45.650;25.612;2023-11-19T05:17:17;94979.31;;;1.26;72.72
84028;BME280;74111;45.650;25.612;2023-11-19T05:19:47;94973.67;;;1.28;72.13
84028;BME280;74111;45.650;25.612;2023-11-19T05:22:16;94971.63;;;1.28;72.42
84028;BME280;74111;45.650;25.612;2023-11-19T05:24:45;94976.65;;;1.27;72.54
84028;BME280;74111;45.650;25.612;2023-11-19T05:27:13;94979.09;;;1.30;72.65
84028;BME280;74111;45.650;25.612;2023-11-19T05:29:41;94975.92;;;1.31;72.48
84028;BME280;74111;45.650;25.612;2023-11-19T05:32:10;94978.02;;;1.31;72.41
84028;BME280;74111;45.650;25.612;2023-11-19T05:34:39;94973.23;;;1.30;72.49
84028;BME280;74111;45.650;25.612;2023-11-19T05:37:10;94973.41;;;1.31;72.43
84028;BME280;74111;45.650;25.612;2023-11-19T05:39:38;94972.99;;;1.32;72.65
84028;BME280;74111;45.650;25.612;2023-11-19T05:42:07;94971.37;;;1.32;72.57
84028;BME280;74111;45.650;25.612;2023-11-19T05:44:35;94971.83;;;1.32;72.63
84028;BME280;74111;45.650;25.612;2023-11-19T05:47:06;94969.47;;;1.36;72.72
84028;BME280;74111;45.650;25.612;2023-11-19T05:49:35;94964.80;;;1.42;72.87
84028;BME280;74111;45.650;25.612;2023-11-19T05:52:03;94955.40;;;1.44;72.90
84028;BME280;74111;45.650;25.612;2023-11-19T05:54:35;94952.76;;;1.43;72.80
84028;BME280;74111;45.650;25.612;2023-11-19T05:57:06;94953.45;;;1.38;72.67
84028;BME280;74111;45.650;25.612;2023-11-19T05:59:37;94951.35;;;1.38;72.78
84028;BME280;74111;45.650;25.612;2023-11-19T06:02:05;94960.92;;;1.42;72.75
84028;BME280;74111;45.650;25.612;2023-11-19T06:04:34;94960.77;;;1.45;72.63
84028;BME280;74111;45.650;25.612;2023-11-19T06:07:02;94962.89;;;1.48;72.43
84028;BME280;74111;45.650;25.612;2023-11-19T06:09:31;94962.12;;;1.53;72.47
84028;BME280;74111;45.650;25.612;2023-11-19T06:12:01;94968.69;;;1.57;72.51
84028;BME280;74111;45.650;25.612;2023-11-19T06:14:30;94978.66;;;1.62;72.58
84028;BME280;74111;45.650;25.612;2023-11-19T06:16:58;94974.22;;;1.65;72.90
84028;BME280;74111;45.650;25.612;2023-11-19T06:19:26;94968.66;;;1.73;72.83
84028;BME280;74111;45.650;25.612;2023-11-19T06:21:57;94963.48;;;1.80;72.75
84028;BME280;74111;45.650;25.612;2023-11-19T06:24:25;94962.41;;;1.84;72.82
84028;BME280;74111;45.650;25.612;2023-11-19T06:26:54;94962.27;;;1.84;72.80
84028;BME280;74111;45.650;25.612;2023-11-19T06:29:22;94962.35;;;1.87;72.47
84028;BME280;74111;45.650;25.612;2023-11-19T06:31:50;94968.84;;;1.85;72.43
84028;BME280;74111;45.650;25.612;2023-11-19T06:34:18;94973.49;;;1.93;72.50
84028;BME280;74111;45.650;25.612;2023-11-19T06:36:46;94979.88;;;2.01;72.84
84028;BME280;74111;45.650;25.612;2023-11-19T06:39:16;94976.20;;;1.96;72.33
84028;BME280;74111;45.650;25.612;2023-11-19T06:41:46;94982.58;;;1.83;72.34
84028;BME280;74111;45.650;25.612;2023-11-19T06:44:14;94984.88;;;1.87;72.50
84028;BME280;74111;45.650;25.612;2023-11-19T06:46:42;94991.33;;;1.87;72.51
84028;BME280;74111;45.650;25.612;2023-11-19T06:49:10;94994.36;;;1.89;72.53
84028;BME280;74111;45.650;25.612;2023-11-19T06:51:42;95000.39;;;1.93;72.32
84028;BME280;74111;45.650;25.612;2023-11-19T06:54:12;95001.64;;;1.94;72.30
84028;BME280;74111;45.650;25.612;2023-11-19T06:56:40;94999.63;;;1.92;72.54
84028;BME280;74111;45.650;25.612;2023-11-19T06:59:09;94987.80;;;1.96;72.76
84028;BME280;74111;45.650;25.612;2023-11-19T07:01:37;94991.41;;;1.99;72.95
84028;BME280;74111;45.650;25.612;2023-11-19T07:04:06;94998.17;;;2.02;72.68
84028;BME280;74111;45.650;25.612;2023-11-19T07:06:36;95005.91;;;2.05;72.58
84028;BME280;74111;45.650;25.612;2023-11-19T07:09:04;95008.45;;;2.11;72.30
84028;BME280;74111;45.650;25.612;2023-11-19T07:11:40;95015.52;;;2.03;72.05
84028;BME280;74111;45.650;25.612;2023-11-19T07:14:08;95017.05;;;1.95;72.34
84028;BME280;74111;45.650;25.612;2023-11-19T07:16:37;95021.98;;;1.94;72.28
84028;BME280;74111;45.650;25.612;2023-11-19T07:19:06;95016.15;;;1.94;72.28
84028;BME280;74111;45.650;25.612;2023-11-19T07:21:35;95019.46;;;1.90;72.34
84028;BME280;74111;45.650;25.612;2023-11-19T07:24:07;95024.66;;;1.91;72.31
84028;BME280;74111;45.650;25.612;2023-11-19T07:26:36;95029.77;;;1.95;72.37
84028;BME280;74111;45.650;25.612;2023-11-19T07:29:05;95022.58;;;1.96;72.18
84028;BME280;74111;45.650;25.612;2023-11-19T07:31:35;95019.63;;;1.86;72.49
84028;BME280;74111;45.650;25.612;2023-11-19T07:34:05;95022.61;;;1.89;72.28
84028;BME280;74111;45.650;25.612;2023-11-19T07:36:34;95019.52;;;1.93;72.04
84028;BME280;74111;45.650;25.612;2023-11-19T07:39:04;95016.34;;;1.96;71.97
84028;BME280;74111;45.650;25.612;2023-11-19T07:41:33;95010.92;;;1.98;72.05
84028;BME280;74111;45.650;25.612;2023-11-19T07:44:04;95010.38;;;1.99;72.43
84028;BME280;74111;45.650;25.612;2023-11-19T07:46:32;95005.84;;;2.03;72.66
84028;BME280;74111;45.650;25.612;2023-11-19T07:49:00;95008.75;;;2.09;72.62
84028;BME280;74111;45.650;25.612;2023-11-19T07:51:30;95006.34;;;2.10;72.42
84028;BME280;74111;45.650;25.612;2023-11-19T07:53:59;95007.92;;;2.11;72.48
84028;BME280;74111;45.650;25.612;2023-11-19T07:56:27;95009.60;;;2.10;72.28
84028;BME280;74111;45.650;25.612;2023-11-19T07:58:55;95012.95;;;2.12;72.17
84028;BME280;74111;45.650;25.612;2023-11-19T08:01:23;95016.44;;;2.11;72.09
84028;BME280;74111;45.650;25.612;2023-11-19T08:03:51;95015.95;;;2.05;72.11
84028;BME280;74111;45.650;25.612;2023-11-19T08:06:23;95016.56;;;2.07;72.33
84028;BME280;74111;45.650;25.612;2023-11-19T08:08:51;95019.30;;;2.13;72.60
84028;BME280;74111;45.650;25.612;2023-11-19T08:11:20;95020.34;;;2.22;72.58
84028;BME280;74111;45.650;25.612;2023-11-19T08:13:48;95015.94;;;2.28;72.51
84028;BME280;74111;45.650;25.612;2023-11-19T08:16:16;95019.00;;;2.36;72.13
84028;BME280;74111;45.650;25.612;2023-11-19T08:18:45;95017.74;;;2.41;72.09
84028;BME280;74111;45.650;25.612;2023-11-19T08:21:13;95013.46;;;2.51;71.88
84028;BME280;74111;45.650;25.612;2023-11-19T08:23:41;95009.77;;;2.60;71.61
84028;BME280;74111;45.650;25.612;2023-11-19T08:26:09;95010.17;;;2.60;70.50
84028;BME280;74111;45.650;25.612;2023-11-19T08:28:37;95007.27;;;2.61;70.50
84028;BME280;74111;45.650;25.612;2023-11-19T08:31:06;95000.91;;;2.63;70.57
84028;BME280;74111;45.650;25.612;2023-11-19T08:33:34;94988.33;;;2.68;70.57
84028;BME280;74111;45.650;25.612;2023-11-19T08:36:03;94987.33;;;2.75;70.43
84028;BME280;74111;45.650;25.612;2023-11-19T08:38:31;94987.67;;;2.79;69.37
84028;BME280;74111;45.650;25.612;2023-11-19T08:41:00;94987.91;;;2.81;69.87
84028;BME280;74111;45.650;25.612;2023-11-19T08:43:28;94990.17;;;2.81;69.31
84028;BME280;74111;45.650;25.612;2023-11-19T08:45:57;94994.90;;;2.81;69.51
84028;BME280;74111;45.650;25.612;2023-11-19T08:48:25;94986.38;;;2.82;69.71
84028;BME280;74111;45.650;25.612;2023-11-19T08:50:54;94988.36;;;2.86;69.60
84028;BME280;74111;45.650;25.612;2023-11-19T08:53:22;94988.64;;;2.89;69.06
84028;BME280;74111;45.650;25.612;2023-11-19T08:55:50;94990.45;;;2.92;68.52
84028;BME280;74111;45.650;25.612;2023-11-19T08:58:19;94993.20;;;2.94;68.44
84028;BME280;74111;45.650;25.612;2023-11-19T09:00:47;94991.48;;;2.95;68.03
84028;BME280;74111;45.650;25.612;2023-11-19T09:03:15;94990.45;;;2.91;67.20
84028;BME280;74111;45.650;25.612;2023-11-19T09:05:43;94994.48;;;2.90;68.18
84028;BME280;74111;45.650;25.612;2023-11-19T09:08:12;94997.89;;;2.88;67.94
84028;BME280;74111;45.650;25.612;2023-11-19T09:10:40;94995.48;;;2.87;68.16
84028;BME280;74111;45.650;25.612;2023-11-19T09:13:08;94991.22;;;2.87;67.70
84028;BME280;74111;45.650;25.612;2023-11-19T09:15:36;94976.48;;;2.88;68.41
84028;BME280;74111;45.650;25.612;2023-11-19T09:18:04;94975.86;;;2.88;68.00
84028;BME280;74111;45.650;25.612;2023-11-19T09:20:33;94973.96;;;2.87;67.23
84028;BME280;74111;45.650;25.612;2023-11-19T09:23:06;94972.59;;;2.89;68.06
84028;BME280;74111;45.650;25.612;2023-11-19T09:25:37;94972.79;;;2.92;67.98
84028;BME280;74111;45.650;25.612;2023-11-19T09:28:08;94972.54;;;2.95;68.26
84028;BME280;74111;45.650;25.612;2023-11-19T09:30:37;94973.80;;;2.97;67.85
84028;BME280;74111;45.650;25.612;2023-11-19T09:33:05;94972.42;;;2.93;66.86
84028;BME280;74111;45.650;25.612;2023-11-19T09:35:33;94966.03;;;2.91;67.12
84028;BME280;74111;45.650;25.612;2023-11-19T09:38:02;94968.94;;;2.91;67.36
84028;BME280;74111;45.650;25.612;2023-11-19T09:40:32;94965.96;;;2.93;67.06
84028;BME280;74111;45.650;25.612;2023-11-19T09:43:01;94965.39;;;2.96;67.74
84028;BME280;74111;45.650;25.612;2023-11-19T09:45:31;94964.45;;;2.98;67.71
84028;BME280;74111;45.650;25.612;2023-11-19T09:48:01;94962.95;;;2.95;66.75
84028;BME280;74111;45.650;25.612;2023-11-19T09:50:31;94961.88;;;2.89;66.58
84028;BME280;74111;45.650;25.612;2023-11-19T09:52:59;94954.97;;;2.87;66.28
84028;BME280;74111;45.650;25.612;2023-11-19T09:55:27;94951.38;;;2.85;66.68
84028;BME280;74111;45.650;25.612;2023-11-19T09:57:56;94955.30;;;2.84;66.95
84028;BME280;74111;45.650;25.612;2023-11-19T10:00:27;94956.60;;;2.86;67.28
84028;BME280;74111;45.650;25.612;2023-11-19T10:02:56;94959.98;;;2.87;67.61
84028;BME280;74111;45.650;25.612;2023-11-19T10:05:25;94957.96;;;2.86;67.18
84028;BME280;74111;45.650;25.612;2023-11-19T10:07:54;94961.98;;;2.85;66.98
84028;BME280;74111;45.650;25.612;2023-11-19T10:10:24;94955.10;;;2.84;67.27
84028;BME280;74111;45.650;25.612;2023-11-19T10:12:52;94951.41;;;2.83;67.36
84028;BME280;74111;45.650;25.612;2023-11-19T10:15:24;94955.14;;;2.81;67.05
84028;BME280;74111;45.650;25.612;2023-11-19T10:17:58;94955.36;;;2.76;66.74
84028;BME280;74111;45.650;25.612;2023-11-19T10:20:27;94952.23;;;2.66;67.07
84028;BME280;74111;45.650;25.612;2023-11-19T10:22:55;94953.70;;;2.65;67.18
84028;BME280;74111;45.650;25.612;2023-11-19T10:25:28;94959.28;;;2.60;67.53
84028;BME280;74111;45.650;25.612;2023-11-19T10:27:56;94960.42;;;2.64;68.26
84028;BME280;74111;45.650;25.612;2023-11-19T10:30:29;94965.05;;;2.71;68.30
84028;BME280;74111;45.650;25.612;2023-11-19T10:33:05;94971.23;;;2.61;67.97
84028;BME280;74111;45.650;25.612;2023-11-19T10:35:57;94966.31;;;2.64;68.19
84028;BME280;74111;45.650;25.612;2023-11-19T10:38:28;94966.99;;;2.63;67.90
84028;BME280;74111;45.650;25.612;2023-11-19T10:40:56;94969.73;;;2.64;68.00
84028;BME280;74111;45.650;25.612;2023-11-19T10:43:24;94970.68;;;2.64;68.05
84028;BME280;74111;45.650;25.612;2023-11-19T10:45:53;94966.64;;;2.64;67.62
84028;BME280;74111;45.650;25.612;2023-11-19T10:48:21;94959.37;;;2.57;67.85
84028;BME280;74111;45.650;25.612;2023-11-19T10:50:53;94959.52;;;2.55;67.90
84028;BME280;74111;45.650;25.612;2023-11-19T10:53:24;94955.43;;;2.57;68.04
84028;BME280;74111;45.650;25.612;2023-11-19T10:55:57;94952.07;;;2.59;68.01
84028;BME280;74111;45.650;25.612;2023-11-19T10:58:28;94950.35;;;2.54;67.78
84028;BME280;74111;45.650;25.612;2023-11-19T11:01:01;94946.23;;;2.56;68.34
84028;BME280;74111;45.650;25.612;2023-11-19T11:03:39;94946.77;;;2.60;68.14
84028;BME280;74111;45.650;25.612;2023-11-19T11:06:09;94942.73;;;2.62;68.00
84028;BME280;74111;45.650;25.612;2023-11-19T11:08:40;94934.20;;;2.66;68.03
84028;BME280;74111;45.650;25.612;2023-11-19T11:11:08;94932.69;;;2.67;67.54
84028;BME280;74111;45.650;25.612;2023-11-19T11:13:42;94933.23;;;2.68;67.77
84028;BME280;74111;45.650;25.612;2023-11-19T11:16:10;94934.61;;;2.66;67.42
84028;BME280;74111;45.650;25.612;2023-11-19T11:18:39;94936.09;;;2.57;67.17
84028;BME280;74111;45.650;25.612;2023-11-19T11:21:15;94937.45;;;2.57;67.93
84028;BME280;74111;45.650;25.612;2023-11-19T11:24:12;94938.48;;;2.47;67.36
84028;BME280;74111;45.650;25.612;2023-11-19T11:26:58;94942.08;;;2.39;67.86
84028;BME280;74111;45.650;25.612;2023-11-19T11:32:37;94925.90;;;2.47;68.63
84028;BME280;74111;45.650;25.612;2023-11-19T11:37:49;94918.31;;;2.50;68.29
84028;BME280;74111;45.650;25.612;2023-11-19T11:40:18;94917.34;;;2.48;68.30
84028;BME280;74111;45.650;25.612;2023-11-19T11:42:46;94917.31;;;2.49;68.37
84028;BME280;74111;45.650;25.612;2023-11-19T11:45:15;94919.10;;;2.49;68.40
84028;BME280;74111;45.650;25.612;2023-11-19T11:50:19;94924.77;;;2.57;68.55
84028;BME280;74111;45.650;25.612;2023-11-19T11:57:56;94924.83;;;2.59;68.44
84028;BME280;74111;45.650;25.612;2023-11-19T12:00:30;94935.98;;;2.60;68.42
84028;BME280;74111;45.650;25.612;2023-11-19T12:03:00;94929.25;;;2.64;68.61
84028;BME280;74111;45.650;25.612;2023-11-19T12:05:29;94936.67;;;2.74;68.92
84028;BME280;74111;45.650;25.612;2023-11-19T12:08:02;94939.49;;;2.79;68.70
84028;BME280;74111;45.650;25.612;2023-11-19T12:10:37;94944.36;;;2.75;68.05
84028;BME280;74111;45.650;25.612;2023-11-19T12:13:06;94945.43;;;2.69;68.03
84028;BME280;74111;45.650;25.612;2023-11-19T12:18:27;94950.96;;;2.66;68.23
84028;BME280;74111;45.650;25.612;2023-11-19T12:20:56;94946.13;;;2.63;68.42
84028;BME280;74111;45.650;25.612;2023-11-19T12:23:31;94951.48;;;2.63;68.43
84028;BME280;74111;45.650;25.612;2023-11-19T12:25:59;94952.23;;;2.57;68.25
84028;BME280;74111;45.650;25.612;2023-11-19T12:28:27;94954.46;;;2.53;68.46
84028;BME280;74111;45.650;25.612;2023-11-19T12:31:07;94956.01;;;2.50;68.70
84028;BME280;74111;45.650;25.612;2023-11-19T12:33:39;94955.95;;;2.52;69.12
84028;BME280;74111;45.650;25.612;2023-11-19T12:36:08;94949.59;;;2.55;69.23
84028;BME280;74111;45.650;25.612;2023-11-19T12:38:36;94943.55;;;2.59;69.13
84028;BME280;74111;45.650;25.612;2023-11-19T12:41:08;94942.92;;;2.58;68.93
84028;BME280;74111;45.650;25.612;2023-11-19T12:43:39;94944.79;;;2.53;68.76
84028;BME280;74111;45.650;25.612;2023-11-19T12:46:21;94946.34;;;2.53;68.94
84028;BME280;74111;45.650;25.612;2023-11-19T12:48:51;94947.29;;;2.39;69.20
84028;BME280;74111;45.650;25.612;2023-11-19T12:51:19;94944.67;;;2.36;69.24
84028;BME280;74111;45.650;25.612;2023-11-19T12:53:51;94946.50;;;2.26;69.60
84028;BME280;74111;45.650;25.612;2023-11-19T12:56:23;94945.73;;;2.24;69.94
84028;BME280;74111;45.650;25.612;2023-11-19T12:58:51;94945.56;;;2.22;70.12
84028;BME280;74111;45.650;25.612;2023-11-19T13:01:20;94945.37;;;2.23;70.14
84028;BME280;74111;45.650;25.612;2023-11-19T13:03:49;94950.19;;;2.21;70.44
84028;BME280;74111;45.650;25.612;2023-11-19T13:06:19;94954.30;;;2.18;70.18
84028;BME280;74111;45.650;25.612;2023-11-19T13:08:50;94953.77;;;2.18;70.23
84028;BME280;74111;45.650;25.612;2023-11-19T13:11:31;94952.46;;;2.18;69.93
84028;BME280;74111;45.650;25.612;2023-11-19T13:14:04;94945.55;;;2.15;70.19
84028;BME280;74111;45.650;25.612;2023-11-19T13:16:33;94939.86;;;2.19;70.26
84028;BME280;74111;45.650;25.612;2023-11-19T13:19:01;94944.55;;;2.26;70.30
84028;BME280;74111;45.650;25.612;2023-11-19T13:21:31;94942.56;;;2.33;70.22
84028;BME280;74111;45.650;25.612;2023-11-19T13:24:00;94936.92;;;2.32;70.21
84028;BME280;74111;45.650;25.612;2023-11-19T13:26:28;94934.97;;;2.30;70.19
84028;BME280;74111;45.650;25.612;2023-11-19T13:28:56;94929.80;;;2.29;70.21